Time;durP1;ratioP1;P1;durP2;ratioP2;P2;SDS_P1;SDS_P2;PMS_P1;PMS_P2;Temp;Humidity;BMP_temperature;BMP_pressure;BME280_temperature;BME280_humidity;BME280_pressure;Samples;Min_cycle;Max_cycle;Signal;HPM_P1;HPM_P2
2023/06/14 00:01:25;;;;;;;7.47;4.80;;;;;;;25.52;35.11;101363.91;5032887;28;20090;-66
2023/06/14 00:03:50;;;;;;;6.68;4.65;;;;;;;25.52;34.73;101366.59;5039301;28;20029;-66
2023/06/14 00:06:15;;;;;;;6.88;5.13;;;;;;;25.50;35.09;101366.75;5031983;28;20044;-66
2023/06/14 00:08:41;;;;;;;6.83;4.93;;;;;;;25.51;34.83;101367.56;5031446;28;20034;-66
2023/06/14 00:11:06;;;;;;;6.50;4.82;;;;;;;25.51;34.77;101365.72;5031637;28;20033;-66
2023/06/14 00:13:33;;;;;;;6.00;4.43;;;;;;;25.53;34.96;101378.91;5032381;28;20077;-67
2023/06/14 00:15:58;;;;;;;7.80;4.95;;;;;;;25.51;35.31;101373.72;5031518;28;20063;-67
2023/06/14 00:18:24;;;;;;;6.40;4.53;;;;;;;25.49;35.43;101365.06;5032043;28;20053;-68
2023/06/14 00:20:50;;;;;;;5.97;4.43;;;;;;;25.50;34.98;101374.75;5030317;28;20037;-67
2023/06/14 00:23:16;;;;;;;6.00;4.75;;;;;;;25.49;35.13;101374.91;5032203;28;20078;-67
2023/06/14 00:25:41;;;;;;;8.77;4.82;;;;;;;25.49;35.14;101380.25;5032359;28;20432;-65
2023/06/14 00:28:06;;;;;;;7.32;5.07;;;;;;;25.51;35.34;101386.25;5032038;28;20044;-67
2023/06/14 00:30:32;;;;;;;6.70;4.77;;;;;;;25.49;35.04;101380.25;5030419;28;20039;-65
2023/06/14 00:32:57;;;;;;;6.28;4.50;;;;;;;25.49;34.74;101375.72;5032283;28;20754;-68
2023/06/14 00:35:23;;;;;;;7.53;4.45;;;;;;;25.48;34.79;101381.22;5031867;28;20036;-66
2023/06/14 00:37:49;;;;;;;6.65;4.25;;;;;;;25.47;34.87;101385.75;5032121;28;20512;-67
2023/06/14 00:40:14;;;;;;;5.45;4.43;;;;;;;25.46;35.08;101375.22;5032011;28;20044;-67
2023/06/14 00:42:39;;;;;;;5.82;4.47;;;;;;;25.44;35.12;101371.91;5031867;28;20037;-67
2023/06/14 00:45:05;;;;;;;6.57;4.50;;;;;;;25.43;34.93;101375.53;5031927;28;20052;-67
2023/06/14 00:47:30;;;;;;;5.90;4.47;;;;;;;25.43;34.57;101375.53;5031698;28;21210;-65
2023/06/14 00:49:56;;;;;;;6.10;4.47;;;;;;;25.46;34.56;101380.56;5031237;28;20037;-67
2023/06/14 00:52:24;;;;;;;6.30;4.38;;;;;;;25.42;34.91;101376.53;5031862;28;20033;-67
2023/06/14 00:54:49;;;;;;;6.25;4.57;;;;;;;25.43;34.96;101378.22;5031857;28;21065;-66
2023/06/14 00:57:15;;;;;;;6.25;4.45;;;;;;;25.40;34.59;101371.34;5031705;28;20116;-67
2023/06/14 00:59:46;;;;;;;6.63;4.40;;;;;;;25.39;34.89;101380.38;5032273;28;20358;-65
2023/06/14 01:02:12;;;;;;;6.43;4.55;;;;;;;25.40;34.60;101379.34;5031920;28;20029;-67
2023/06/14 01:04:41;;;;;;;7.22;4.30;;;;;;;25.39;34.66;101380.38;5032287;28;20025;-66
2023/06/14 01:07:42;;;;;;;7.53;4.50;;;;;;;25.39;34.28;101383.03;5031911;28;20036;-67
2023/06/14 01:10:22;;;;;;;6.32;4.70;;;;;;;25.39;34.57;101377.72;5006077;28;20053;-67
2023/06/14 01:13:05;;;;;;;7.10;4.47;;;;;;;25.40;34.77;101382.03;5031747;28;20440;-66
2023/06/14 01:15:31;;;;;;;6.75;4.40;;;;;;;25.40;34.59;101382.03;5030587;28;20033;-67
2023/06/14 01:18:02;;;;;;;6.53;4.50;;;;;;;25.35;34.54;101377.16;5031365;28;20064;-67
2023/06/14 01:20:29;;;;;;;6.28;4.15;;;;;;;25.38;34.30;101381.34;5030950;28;20044;-67
2023/06/14 01:22:55;;;;;;;6.47;4.18;;;;;;;25.37;34.13;101390.34;5031675;28;20392;-67
2023/06/14 01:25:22;;;;;;;6.20;4.70;;;;;;;25.35;34.10;101382.50;5030342;28;20029;-68
2023/06/14 01:27:55;;;;;;;5.90;4.30;;;;;;;25.35;34.54;101379.84;5030100;28;20060;-67
2023/06/14 01:30:22;;;;;;;7.82;4.50;;;;;;;25.36;34.15;101386.03;5030986;28;20072;-66
2023/06/14 01:32:50;;;;;;;6.13;3.78;;;;;;;25.35;34.19;101382.50;5029388;28;20029;-67
2023/06/14 01:35:16;;;;;;;7.22;4.68;;;;;;;25.29;33.88;101374.31;5031188;28;20030;-66
2023/06/14 01:37:42;;;;;;;6.20;3.97;;;;;;;25.32;34.31;101385.50;5030131;28;20028;-66
2023/06/14 01:40:10;;;;;;;6.00;4.38;;;;;;;25.29;33.83;101377.84;5030980;28;20159;-66
2023/06/14 01:42:37;;;;;;;5.47;3.83;;;;;;;25.31;34.42;101378.50;5030672;28;20033;-66
2023/06/14 01:45:05;;;;;;;7.63;3.92;;;;;;;25.32;33.74;101387.31;5031884;28;20044;-67
2023/06/14 01:47:31;;;;;;;8.77;4.75;;;;;;;25.32;33.87;101384.66;5031207;28;20239;-66
2023/06/14 01:49:57;;;;;;;5.25;3.85;;;;;;;25.32;34.05;101380.16;5030612;28;20037;-66
2023/06/14 01:52:24;;;;;;;5.85;3.83;;;;;;;25.30;33.61;101376.81;5031264;28;20034;-65
2023/06/14 01:54:49;;;;;;;8.10;3.83;;;;;;;25.30;34.22;101376.00;5031253;28;20069;-66
2023/06/14 01:57:15;;;;;;;6.07;3.60;;;;;;;25.30;34.02;101373.31;5029947;28;20414;-69
2023/06/14 01:59:40;;;;;;;6.97;3.53;;;;;;;25.28;34.05;101368.16;5030051;28;20174;-68
2023/06/14 02:02:05;;;;;;;5.63;3.83;;;;;;;25.28;33.53;101378.00;5030835;28;20473;-67
2023/06/14 02:04:31;;;;;;;6.22;3.80;;;;;;;25.27;33.41;101382.44;5029927;28;20331;-67
2023/06/14 02:06:56;;;;;;;5.73;3.67;;;;;;;25.25;33.77;101380.94;5031037;28;20061;-67
2023/06/14 02:09:21;;;;;;;5.67;4.13;;;;;;;25.27;33.52;101384.28;5030540;28;20269;-67
2023/06/14 02:11:47;;;;;;;5.63;3.63;;;;;;;25.25;33.90;101375.59;5030593;28;20040;-68
2023/06/14 02:14:12;;;;;;;6.47;3.85;;;;;;;25.25;33.73;101375.59;5030458;28;20266;-68
2023/06/14 02:16:38;;;;;;;7.20;3.38;;;;;;;25.24;33.46;101377.41;5030538;28;20060;-67
2023/06/14 02:19:04;;;;;;;4.97;3.30;;;;;;;25.22;33.54;101374.09;5030546;28;20116;-67
2023/06/14 02:21:30;;;;;;;7.30;3.75;;;;;;;25.22;33.54;101381.25;5031199;28;20036;-66
2023/06/14 02:23:55;;;;;;;6.75;3.83;;;;;;;25.23;33.27;101381.09;5030093;28;20034;-66
2023/06/14 02:26:22;;;;;;;6.57;3.88;;;;;;;25.22;33.28;101379.41;5030661;28;20037;-66
2023/06/14 02:28:47;;;;;;;5.90;3.90;;;;;;;25.21;33.22;101384.91;5030297;28;20065;-66
2023/06/14 02:31:13;;;;;;;6.82;3.70;;;;;;;25.20;33.43;101384.09;5030213;28;20072;-67
2023/06/14 02:33:38;;;;;;;5.37;3.47;;;;;;;25.19;33.70;101378.91;5030391;28;20488;-68
2023/06/14 02:36:03;;;;;;;5.60;3.95;;;;;;;25.19;33.65;101385.06;5030609;28;20033;-66
2023/06/14 02:38:29;;;;;;;5.53;3.65;;;;;;;25.17;33.11;101393.22;5032099;28;20145;-67
2023/06/14 02:40:54;;;;;;;6.47;3.67;;;;;;;25.17;33.27;101382.56;5033952;28;20490;-68
2023/06/14 02:43:20;;;;;;;5.60;3.63;;;;;;;25.19;33.15;101401.06;5034488;28;20281;-66
2023/06/14 02:45:45;;;;;;;7.38;3.13;;;;;;;25.17;33.57;101395.91;5033625;28;20444;-66
2023/06/14 02:48:11;;;;;;;6.87;3.73;;;;;;;25.15;33.07;101392.56;5033404;28;20099;-68
2023/06/14 02:50:36;;;;;;;5.63;3.53;;;;;;;25.14;33.14;101390.06;5033718;28;20834;-66
2023/06/14 02:53:02;;;;;;;5.25;3.40;;;;;;;25.14;33.34;101395.38;5034850;28;20437;-66
2023/06/14 02:55:28;;;;;;;5.80;3.50;;;;;;;25.15;33.57;101397.03;5034393;28;20037;-67
2023/06/14 02:57:53;;;;;;;7.72;3.60;;;;;;;25.12;33.00;101384.88;5033810;28;20033;-66
2023/06/14 03:00:19;;;;;;;7.53;3.30;;;;;;;25.13;33.52;101391.03;5033148;28;20099;-67
2023/06/14 03:02:45;;;;;;;5.15;3.30;;;;;;;25.12;33.54;101392.88;5034187;28;20038;-66
2023/06/14 03:05:10;;;;;;;5.50;3.33;;;;;;;25.12;32.99;101390.22;5033836;28;20068;-67
2023/06/14 03:07:40;;;;;;;6.55;3.60;;;;;;;25.11;33.50;101393.84;5033580;28;20378;-67
2023/06/14 03:10:09;;;;;;;5.72;3.30;;;;;;;25.10;32.95;101397.53;5033548;28;20119;-67
2023/06/14 03:12:35;;;;;;;5.47;3.75;;;;;;;25.09;33.08;101397.69;5034137;28;20440;-68
2023/06/14 03:15:04;;;;;;;6.13;3.58;;;;;;;25.08;33.32;101398.69;5040164;28;20033;-66
2023/06/14 03:17:33;;;;;;;5.10;3.30;;;;;;;25.06;32.92;101396.16;5033783;28;20060;-66
2023/06/14 03:19:58;;;;;;;5.38;3.58;;;;;;;25.07;33.29;101405.84;5033247;28;20147;-66
2023/06/14 03:22:25;;;;;;;5.40;3.38;;;;;;;25.05;32.96;101407.81;5033475;28;20108;-66
2023/06/14 03:24:52;;;;;;;4.72;3.38;;;;;;;25.07;33.47;101410.31;5032993;28;20596;-67
2023/06/14 03:27:17;;;;;;;4.78;3.25;;;;;;;25.04;33.07;101408.81;5033309;28;20812;-67
2023/06/14 03:29:42;;;;;;;5.30;3.50;;;;;;;25.05;33.21;101407.81;5033515;28;20454;-66
2023/06/14 03:32:08;;;;;;;6.13;3.50;;;;;;;25.05;33.17;101417.66;5033034;28;20025;-66
2023/06/14 03:34:33;;;;;;;5.38;3.67;;;;;;;25.05;33.35;101409.66;5033630;28;20508;-67
2023/06/14 03:36:59;;;;;;;5.78;3.53;;;;;;;25.02;33.05;101410.78;5039250;28;20107;-65
2023/06/14 03:39:24;;;;;;;4.88;3.05;;;;;;;25.03;33.28;101414.31;5033382;28;20037;-66
2023/06/14 03:41:50;;;;;;;4.95;3.10;;;;;;;25.04;32.73;101415.97;5031587;28;20059;-66
2023/06/14 03:44:18;;;;;;;5.00;3.17;;;;;;;25.03;33.37;101414.31;5033222;28;20041;-66
2023/06/14 03:46:43;;;;;;;6.30;3.30;;;;;;;25.01;33.24;101416.28;5032799;28;20033;-65
2023/06/14 03:49:09;;;;;;;6.05;3.42;;;;;;;24.99;33.39;101419.97;5033005;28;20209;-66
2023/06/14 03:51:35;;;;;;;7.60;3.60;;;;;;;24.99;33.13;101416.44;5032531;28;20107;-66
2023/06/14 03:54:00;;;;;;;6.18;3.53;;;;;;;25.01;32.97;101419.81;5032036;28;20028;-67
2023/06/14 03:56:26;;;;;;;5.97;3.45;;;;;;;24.98;32.93;101418.28;5033054;28;20025;-65
2023/06/14 03:58:52;;;;;;;6.20;3.22;;;;;;;25.01;33.33;101427.81;5032763;28;20072;-65
2023/06/14 04:01:17;;;;;;;5.43;3.33;;;;;;;25.01;32.93;101429.63;5032727;28;21238;-67
2023/06/14 04:03:43;;;;;;;5.68;3.33;;;;;;;25.00;33.21;101428.78;5032725;28;20160;-67
2023/06/14 04:06:08;;;;;;;5.72;3.17;;;;;;;24.98;33.45;101436.13;5032508;28;20040;-67
2023/06/14 04:08:34;;;;;;;5.85;3.20;;;;;;;24.97;32.99;101429.91;5032492;28;20037;-66
2023/06/14 04:11:00;;;;;;;5.57;2.97;;;;;;;24.97;33.39;101431.75;5032099;28;20128;-66
2023/06/14 04:13:25;;;;;;;5.88;3.30;;;;;;;24.98;33.33;101438.78;5032474;28;20599;-66
2023/06/14 04:15:51;;;;;;;6.57;3.30;;;;;;;24.98;32.98;101431.59;5032008;28;20127;-65
2023/06/14 04:18:16;;;;;;;5.68;3.22;;;;;;;24.95;32.96;101439.91;5032617;28;20282;-66
2023/06/14 04:20:41;;;;;;;6.30;3.40;;;;;;;24.97;33.09;101435.25;5031971;28;20103;-67
2023/06/14 04:23:15;;;;;;;5.93;3.20;;;;;;;24.94;33.40;101440.06;5032390;28;20036;-66
2023/06/14 04:25:44;;;;;;;6.03;3.00;;;;;;;24.97;32.86;101445.09;5031877;28;20477;-67
2023/06/14 04:28:11;;;;;;;6.22;3.10;;;;;;;24.93;33.39;101433.91;5031908;28;20109;-68
2023/06/14 04:30:38;;;;;;;4.93;2.95;;;;;;;24.95;33.07;101434.59;5032149;28;20051;-65
2023/06/14 04:33:05;;;;;;;7.55;3.47;;;;;;;24.90;33.37;101436.88;5031892;28;20536;-67
2023/06/14 04:35:32;;;;;;;5.72;3.28;;;;;;;24.95;33.13;101444.44;5031570;28;20028;-67
2023/06/14 04:37:58;;;;;;;5.57;3.03;;;;;;;24.94;32.90;101442.75;5032220;28;20052;-66
2023/06/14 04:40:23;;;;;;;4.95;3.10;;;;;;;24.91;33.02;101437.72;5031515;28;20089;-67
2023/06/14 04:42:50;;;;;;;6.50;3.03;;;;;;;24.93;33.45;101441.91;5031316;28;20025;-67
2023/06/14 04:45:16;;;;;;;6.05;3.25;;;;;;;24.91;33.00;101440.38;5031326;28;20044;-68
2023/06/14 04:47:42;;;;;;;6.07;3.17;;;;;;;24.92;33.32;101447.41;5032387;28;20026;-67
2023/06/14 04:50:07;;;;;;;6.05;3.42;;;;;;;24.92;33.27;101452.72;5031388;28;20025;-67
2023/06/14 04:52:35;;;;;;;10.30;3.10;;;;;;;24.91;32.91;101446.56;5031519;28;20064;-66
2023/06/14 04:55:01;;;;;;;5.57;3.08;;;;;;;24.92;33.34;101452.72;5032492;28;20514;-67
2023/06/14 04:57:27;;;;;;;5.18;3.20;;;;;;;24.91;33.42;101451.91;5031473;28;20041;-66
2023/06/14 04:59:55;;;;;;;5.07;3.08;;;;;;;24.91;33.33;101451.03;5031193;28;20090;-65
2023/06/14 05:02:22;;;;;;;6.03;3.00;;;;;;;24.91;33.10;101451.91;5031547;28;20040;-66
2023/06/14 05:04:48;;;;;;;6.60;2.80;;;;;;;24.91;33.09;101462.56;5031173;28;20136;-66
2023/06/14 05:07:14;;;;;;;5.38;3.00;;;;;;;24.91;33.47;101454.56;5031729;28;20137;-65
2023/06/14 05:09:39;;;;;;;5.15;3.10;;;;;;;24.91;33.09;101457.22;5031574;28;20033;-66
2023/06/14 05:12:07;;;;;;;5.95;3.28;;;;;;;24.92;33.21;101455.41;5031357;28;20044;-66
2023/06/14 05:14:33;;;;;;;5.45;3.05;;;;;;;24.90;33.56;101460.88;5031154;28;20401;-66
2023/06/14 05:16:58;;;;;;;5.65;2.95;;;;;;;24.92;33.26;101460.72;5031328;28;20045;-67
2023/06/14 05:19:23;;;;;;;5.20;3.00;;;;;;;24.93;33.52;101465.06;5031549;28;20029;-66
2023/06/14 05:21:48;;;;;;;5.38;3.42;;;;;;;24.91;33.30;101465.22;5031038;28;20261;-66
2023/06/14 05:24:16;;;;;;;5.23;2.90;;;;;;;24.93;33.52;101468.56;5031331;28;20364;-66
2023/06/14 05:26:42;;;;;;;5.82;3.00;;;;;;;24.94;33.17;101469.41;5031737;28;20603;-66
2023/06/14 05:29:07;;;;;;;5.53;3.28;;;;;;;24.92;33.72;101458.06;5030444;28;20032;-66
2023/06/14 05:31:32;;;;;;;6.07;3.22;;;;;;;24.94;33.53;101464.06;5030946;28;20128;-67
2023/06/14 05:33:58;;;;;;;5.43;3.10;;;;;;;24.95;33.38;101465.75;5031065;28;20037;-67
2023/06/14 05:36:23;;;;;;;5.05;2.85;;;;;;;24.96;33.38;101470.94;5031204;28;20060;-65
2023/06/14 05:38:50;;;;;;;6.20;3.20;;;;;;;24.95;33.72;101469.25;5030533;28;20025;-66
2023/06/14 05:41:16;;;;;;;5.75;3.08;;;;;;;24.95;33.26;101471.09;5030752;28;20045;-67
2023/06/14 05:43:41;;;;;;;6.95;3.00;;;;;;;24.94;33.33;101475.59;5030476;28;20397;-67
2023/06/14 05:46:06;;;;;;;6.45;3.03;;;;;;;24.98;33.30;101478.78;5031117;28;20040;-68
2023/06/14 05:48:32;;;;;;;5.68;3.17;;;;;;;24.98;33.44;101478.78;5030697;28;20033;-67
2023/06/14 05:50:57;;;;;;;4.97;2.80;;;;;;;24.99;33.29;101477.75;5031390;28;20044;-68
2023/06/14 05:53:22;;;;;;;6.78;3.10;;;;;;;24.98;33.52;101484.94;5031002;28;20393;-68
2023/06/14 05:55:48;;;;;;;4.70;2.92;;;;;;;25.01;33.74;101482.94;5030949;28;20116;-67
2023/06/14 05:58:14;;;;;;;8.43;3.63;;;;;;;24.95;32.75;101481.75;5030260;28;20072;-67
2023/06/14 06:00:39;;;;;;;10.75;3.72;;;;;;;24.88;31.65;101483.34;5030580;28;20117;-67
2023/06/14 06:03:07;;;;;;;7.53;3.50;;;;;;;24.81;31.74;101493.78;5030608;28;20156;-66
2023/06/14 06:05:35;;;;;;;8.40;3.97;;;;;;;24.73;31.53;101489.22;5030979;28;20026;-67
2023/06/14 06:08:00;;;;;;;11.05;4.55;;;;;;;24.63;31.59;101494.63;5030929;28;20037;-67
2023/06/14 06:10:26;;;;;;;8.70;4.00;;;;;;;24.55;31.73;101493.69;5031117;28;20038;-69
2023/06/14 06:12:54;;;;;;;9.55;3.65;;;;;;;24.49;31.86;101500.47;5031124;28;20094;-69
2023/06/14 06:15:19;;;;;;;7.72;4.20;;;;;;;24.45;32.21;101501.78;5035195;28;20033;-67
2023/06/14 06:17:44;;;;;;;8.02;4.65;;;;;;;24.42;31.97;101504.72;5034209;28;20056;-69
2023/06/14 06:20:11;;;;;;;6.55;3.60;;;;;;;24.36;32.35;101502.66;5034317;28;20110;-69
2023/06/14 06:22:37;;;;;;;7.22;4.10;;;;;;;24.34;32.32;101507.28;5034845;28;20082;-67
2023/06/14 06:25:02;;;;;;;6.40;3.83;;;;;;;24.30;31.93;101511.25;5034246;28;20655;-67
2023/06/14 06:27:28;;;;;;;8.48;3.80;;;;;;;24.29;32.21;101514.88;5034567;28;20036;-68
2023/06/14 06:29:53;;;;;;;8.40;3.45;;;;;;;24.26;32.38;101516.03;5034088;28;20163;-68
2023/06/14 06:32:18;;;;;;;10.03;3.77;;;;;;;24.24;32.73;101520.66;5034398;28;20029;-67
2023/06/14 06:34:43;;;;;;;10.45;3.85;;;;;;;24.23;32.23;101516.34;5034518;28;20275;-67
2023/06/14 06:37:09;;;;;;;7.23;4.17;;;;;;;24.24;32.23;101526.84;5034437;28;20022;-68
2023/06/14 06:39:34;;;;;;;6.55;3.92;;;;;;;24.24;32.50;101520.66;5034308;28;20274;-69
2023/06/14 06:42:00;;;;;;;11.27;3.97;;;;;;;24.22;32.41;101520.81;5034106;28;20477;-67
2023/06/14 06:44:25;;;;;;;7.88;3.55;;;;;;;24.23;32.12;101532.31;5034089;28;20064;-68
2023/06/14 06:46:50;;;;;;;9.75;3.83;;;;;;;24.24;32.70;101532.16;5034418;28;20090;-68
2023/06/14 06:49:16;;;;;;;9.63;4.13;;;;;;;24.24;32.37;101526.84;5034009;28;20381;-67
2023/06/14 06:51:42;;;;;;;6.72;3.63;;;;;;;24.23;32.21;101534.97;5034243;28;20041;-68
2023/06/14 06:54:08;;;;;;;9.15;4.03;;;;;;;24.23;32.52;101535.81;5014548;28;20033;-68
2023/06/14 06:56:34;;;;;;;6.50;3.45;;;;;;;24.24;32.35;101533.97;5022449;28;20056;-67
2023/06/14 06:59:00;;;;;;;8.98;3.58;;;;;;;24.25;32.48;101547.16;5033384;28;20163;-67
2023/06/14 07:01:26;;;;;;;10.40;3.78;;;;;;;24.26;32.38;101546.16;5031825;28;20124;-68
2023/06/14 07:03:51;;;;;;;12.38;3.70;;;;;;;24.25;32.96;101546.31;5026471;28;20048;-67
2023/06/14 07:06:18;;;;;;;6.80;3.30;;;;;;;24.26;32.58;101551.50;5026340;28;20041;-66
2023/06/14 07:08:44;;;;;;;7.32;3.35;;;;;;;24.22;32.93;101543.94;5028616;28;20033;-67
2023/06/14 07:11:09;;;;;;;11.98;3.53;;;;;;;24.24;32.81;101550.81;5031525;28;20095;-65
2023/06/14 07:13:35;;;;;;;10.38;3.72;;;;;;;24.29;32.58;101553.00;5033768;28;20149;-66
2023/06/14 07:16:00;;;;;;;9.85;3.53;;;;;;;24.19;32.54;101550.41;5033689;28;20040;-67
2023/06/14 07:18:26;;;;;;;8.48;3.30;;;;;;;24.17;33.08;101548.88;5033344;28;20579;-67
2023/06/14 07:20:53;;;;;;;21.52;4.68;;;;;;;24.16;33.64;101557.84;5033568;28;20114;-69
2023/06/14 07:23:18;;;;;;;21.73;4.97;;;;;;;24.17;33.49;101552.38;5031973;28;20025;-67
2023/06/14 07:25:43;;;;;;;9.43;3.78;;;;;;;24.21;33.54;101555.56;5030912;28;20252;-69
2023/06/14 07:28:09;;;;;;;14.85;3.42;;;;;;;24.26;33.21;101550.66;5033367;28;20030;-68
2023/06/14 07:30:35;;;;;;;15.93;3.78;;;;;;;24.31;33.27;101559.03;5033133;28;20033;-64
2023/06/14 07:33:00;;;;;;;11.32;3.00;;;;;;;24.37;33.19;101562.91;5033160;28;20068;-65
2023/06/14 07:35:26;;;;;;;10.65;3.60;;;;;;;24.41;33.53;101569.63;5033257;28;20068;-66
2023/06/14 07:37:51;;;;;;;12.82;4.03;;;;;;;24.44;33.66;101574.69;5033177;28;20041;-66
2023/06/14 07:40:16;;;;;;;8.23;3.00;;;;;;;24.49;33.83;101572.38;5033596;28;20033;-66
2023/06/14 07:42:42;;;;;;;8.25;3.17;;;;;;;24.51;33.29;101566.91;5032840;28;20269;-66
2023/06/14 07:45:07;;;;;;;8.30;2.93;;;;;;;24.56;33.29;101572.63;5032735;28;20060;-66
2023/06/14 07:47:33;;;;;;;8.82;3.47;;;;;;;24.58;33.28;101570.69;5032852;28;20562;-65
2023/06/14 07:49:58;;;;;;;7.88;3.30;;;;;;;24.62;33.54;101580.91;5033182;28;21062;-66
2023/06/14 07:52:24;;;;;;;8.20;3.45;;;;;;;24.65;33.50;101587.75;5032699;28;20370;-64
2023/06/14 07:54:49;;;;;;;9.20;3.40;;;;;;;24.67;33.14;101584.94;5033404;28;20103;-66
2023/06/14 07:57:14;;;;;;;8.68;3.30;;;;;;;24.67;33.23;101582.28;5032910;28;20066;-72
2023/06/14 07:59:40;;;;;;;7.65;3.63;;;;;;;24.65;32.69;101581.59;5032363;28;20036;-69
2023/06/14 08:02:06;;;;;;;6.75;3.35;;;;;;;24.64;32.42;101586.06;5033123;28;20464;-67
2023/06/14 08:04:31;;;;;;;8.48;3.15;;;;;;;24.62;32.98;101586.25;5032767;28;20033;-68
2023/06/14 08:06:57;;;;;;;6.13;3.55;;;;;;;24.59;33.47;101591.88;5033109;28;20037;-67
2023/06/14 08:09:22;;;;;;;7.60;3.33;;;;;;;24.63;33.23;101597.72;5031431;28;20033;-68
2023/06/14 08:11:48;;;;;;;8.55;3.10;;;;;;;24.66;33.31;101601.91;5032162;28;20025;-68
2023/06/14 08:14:13;;;;;;;13.95;4.00;;;;;;;24.67;33.09;101598.25;5032192;28;20424;-67
2023/06/14 08:16:38;;;;;;;8.10;3.22;;;;;;;24.73;34.13;101590.50;5032347;28;20041;-64
2023/06/14 08:19:04;;;;;;;6.17;3.30;;;;;;;24.80;34.73;101593.38;5032344;28;20033;-63
2023/06/14 08:21:29;;;;;;;8.68;2.97;;;;;;;24.80;33.87;101594.25;5032351;28;20274;-68
2023/06/14 08:23:57;;;;;;;7.63;3.10;;;;;;;24.80;33.84;101598.72;5032426;28;20029;-68
2023/06/14 08:26:23;;;;;;;15.20;3.30;;;;;;;24.80;34.46;101591.59;5032153;28;20041;-69
2023/06/14 08:28:48;;;;;;;9.50;2.92;;;;;;;24.81;34.91;101585.25;5038956;28;20095;-70
2023/06/14 08:31:13;;;;;;;5.93;2.80;;;;;;;24.83;34.56;101589.59;5031579;28;20029;-67
2023/06/14 08:33:42;;;;;;;8.27;3.17;;;;;;;24.80;34.95;101586.25;5032234;28;20039;-68
2023/06/14 08:36:08;;;;;;;6.80;3.10;;;;;;;24.81;35.69;101587.91;5032143;28;20289;-68
2023/06/14 08:38:33;;;;;;;10.88;2.88;;;;;;;24.86;36.21;101586.63;5031779;28;20036;-66
2023/06/14 08:41:00;;;;;;;6.78;3.00;;;;;;;24.87;36.27;101585.66;5032212;28;20033;-68
2023/06/14 08:43:26;;;;;;;9.05;2.90;;;;;;;24.91;36.43;101600.34;5032112;28;20041;-69
2023/06/14 08:45:58;;;;;;;7.60;3.30;;;;;;;24.89;37.24;101581.81;5032183;28;20055;-68
2023/06/14 08:48:26;;;;;;;5.97;2.90;;;;;;;24.92;36.71;101592.19;5031827;28;20039;-70
2023/06/14 08:51:01;;;;;;;5.85;3.17;;;;;;;24.94;36.70;101586.72;5032217;28;20540;-68
2023/06/14 08:53:28;;;;;;;6.97;2.95;;;;;;;24.95;36.69;101583.88;5031526;28;20056;-69
2023/06/14 08:55:55;;;;;;;6.60;2.90;;;;;;;24.95;36.58;101583.06;5031451;28;20049;-69
2023/06/14 08:58:24;;;;;;;10.13;2.55;;;;;;;25.04;36.06;101590.16;5024757;28;20032;-66
2023/06/14 09:00:52;;;;;;;6.95;3.08;;;;;;;25.10;35.20;101589.53;5029808;28;20122;-64
2023/06/14 09:03:20;;;;;;;8.52;2.85;;;;;;;25.15;34.96;101592.59;5032280;28;20075;-67
2023/06/14 09:05:46;;;;;;;4.25;2.17;;;;;;;25.16;35.37;101591.56;5030112;28;20037;-68
2023/06/14 09:08:12;;;;;;;8.63;2.63;;;;;;;25.19;35.75;101594.94;5030650;28;20037;-68
2023/06/14 09:10:39;;;;;;;6.68;2.28;;;;;;;25.21;35.76;101590.28;5030642;28;20040;-67
2023/06/14 09:13:06;;;;;;;8.25;2.45;;;;;;;25.23;35.33;101591.81;5030658;28;20795;-67
2023/06/14 09:15:32;;;;;;;9.85;2.85;;;;;;;25.22;35.54;101584.78;5030641;28;20366;-69
2023/06/14 09:17:57;;;;;;;5.75;2.30;;;;;;;25.26;35.82;101588.84;5030692;28;20063;-68
2023/06/14 09:20:24;;;;;;;6.88;2.70;;;;;;;25.28;35.77;101602.88;5030909;28;20078;-68
2023/06/14 09:22:49;;;;;;;8.43;2.30;;;;;;;25.27;34.37;101581.66;5030863;28;20096;-68
2023/06/14 09:25:15;;;;;;;5.70;2.40;;;;;;;25.30;34.40;101587.56;5030277;28;20040;-66
2023/06/14 09:27:41;;;;;;;6.63;2.40;;;;;;;25.33;35.22;101594.44;5028965;28;20490;-66
2023/06/14 09:30:09;;;;;;;5.32;2.58;;;;;;;25.36;34.97;101599.47;5029376;28;20029;-69
2023/06/14 09:32:42;;;;;;;6.93;2.90;;;;;;;25.35;34.99;101595.09;5030404;28;20040;-67
2023/06/14 09:35:07;;;;;;;4.43;2.65;;;;;;;25.38;35.52;101596.63;5029816;28;20470;-70
2023/06/14 09:37:34;;;;;;;6.95;2.83;;;;;;;25.40;35.24;101591.97;5030210;28;20025;-69
2023/06/14 09:40:00;;;;;;;6.97;2.55;;;;;;;25.42;35.10;101600.66;5030264;28;20034;-70
2023/06/14 09:42:26;;;;;;;4.55;2.40;;;;;;;25.43;35.53;101595.16;5029792;28;20044;-68
2023/06/14 09:44:56;;;;;;;3.97;2.08;;;;;;;25.45;35.49;101609.19;5030913;28;20065;-69
2023/06/14 09:47:25;;;;;;;7.53;3.03;;;;;;;25.47;35.30;101614.38;5030250;28;20072;-69
2023/06/14 09:49:50;;;;;;;5.10;2.42;;;;;;;25.47;35.41;101607.22;5030153;28;20060;-69
2023/06/14 09:52:18;;;;;;;4.60;2.03;;;;;;;25.45;35.22;101613.69;5030187;28;20037;-69
2023/06/14 09:54:52;;;;;;;4.00;2.20;;;;;;;25.48;34.55;101605.38;5030471;28;20033;-69
2023/06/14 09:57:21;;;;;;;4.78;2.42;;;;;;;25.47;34.96;101606.38;5030515;28;20029;-69
2023/06/14 09:59:48;;;;;;;4.00;2.20;;;;;;;25.49;35.09;101599.06;5029909;28;20060;-67
2023/06/14 10:02:19;;;;;;;8.75;2.28;;;;;;;25.46;35.00;101602.84;5030275;28;20557;-67
2023/06/14 10:04:52;;;;;;;6.60;2.15;;;;;;;25.48;35.17;101600.84;5030552;28;20041;-68
2023/06/14 10:07:20;;;;;;;;;;;;;;;25.57;34.79;101603.63;5030428;28;20396;-71
2023/06/14 10:09:49;;;;;;;5.78;2.28;;;;;;;25.55;34.97;101601.09;5029032;28;19954;-68
2023/06/14 10:12:20;;;;;;;4.63;2.08;;;;;;;25.55;35.08;101585.09;5030357;28;20124;-70
2023/06/14 10:14:49;;;;;;;4.72;2.00;;;;;;;25.56;34.97;101586.75;5030455;28;20056;-68
2023/06/14 10:17:23;;;;;;;4.82;1.90;;;;;;;25.50;34.84;101593.56;5030161;28;20045;-68
2023/06/14 10:20:06;;;;;;;8.55;2.40;;;;;;;25.48;34.88;101581.34;5029635;28;20021;-72
2023/06/14 10:22:41;;;;;;;4.13;2.15;;;;;;;25.48;34.75;101576.84;5030131;28;20469;-68
2023/06/14 10:25:13;;;;;;;5.97;2.45;;;;;;;25.49;35.11;101589.19;5030638;28;20037;-68
2023/06/14 10:27:38;;;;;;;4.95;1.80;;;;;;;25.51;35.35;101579.19;5029256;28;20029;-73
2023/06/14 10:30:07;;;;;;;7.30;2.30;;;;;;;25.53;34.96;101585.25;5029918;28;20359;-66
2023/06/14 10:32:36;;;;;;;4.45;1.95;;;;;;;25.58;35.28;101592.78;5029904;28;20438;-68
2023/06/14 10:35:06;;;;;;;4.75;2.30;;;;;;;25.59;35.10;101591.78;5030657;28;20053;-68
2023/06/14 10:37:32;;;;;;;4.65;2.00;;;;;;;25.58;34.63;101590.13;5029485;28;20096;-70
2023/06/14 10:39:57;;;;;;;3.83;1.80;;;;;;;25.62;34.87;101594.13;5028966;28;20043;-69
2023/06/14 10:42:33;;;;;;;3.95;1.73;;;;;;;25.63;34.58;101585.13;5029473;28;20025;-69
2023/06/14 10:45:00;;;;;;;7.90;1.80;;;;;;;25.68;34.70;101595.34;5028838;28;20025;-69
2023/06/14 10:47:29;;;;;;;3.83;1.70;;;;;;;25.68;34.87;101590.00;5029092;28;20473;-71
2023/06/14 10:49:58;;;;;;;5.95;2.00;;;;;;;25.68;34.58;101598.84;5030104;28;20239;-70
2023/06/14 10:52:27;;;;;;;5.97;2.30;;;;;;;25.69;34.79;101589.00;5028808;28;20044;-68
2023/06/14 10:55:17;;;;;;;3.35;1.60;;;;;;;25.67;34.67;101591.00;5031076;28;20048;-70
2023/06/14 10:57:58;;;;;;;4.22;1.80;;;;;;;25.65;34.67;101593.81;5027266;28;20448;-69
2023/06/14 11:00:26;;;;;;;5.20;1.90;;;;;;;25.60;34.72;101589.97;5031933;28;20040;-72
2023/06/14 11:03:07;;;;;;;3.70;1.92;;;;;;;25.63;34.88;101608.34;5031397;28;20048;-69
2023/06/14 11:05:41;;;;;;;4.40;1.73;;;;;;;25.63;35.11;101597.66;5038839;28;20033;-70
2023/06/14 11:08:19;;;;;;;;;;;;;;;25.69;34.58;101597.00;5033315;28;20065;-68
2023/06/14 11:10:47;;;;;;;6.28;2.47;;;;;;;25.69;34.66;101595.19;5032918;28;20521;-70
2023/06/14 11:13:15;;;;;;;4.70;1.88;;;;;;;25.67;34.87;101586.47;5032664;28;20078;-68
2023/06/14 11:15:45;;;;;;;4.25;1.80;;;;;;;25.65;34.85;101593.00;5032192;28;20055;-69
2023/06/14 11:18:12;;;;;;;5.60;1.77;;;;;;;25.67;34.25;101593.66;5033748;28;20053;-70
2023/06/14 11:20:37;;;;;;;5.43;1.73;;;;;;;25.67;34.49;101574.97;5032959;28;20029;-70
2023/06/14 11:23:04;;;;;;;5.88;1.95;;;;;;;25.68;34.70;101580.16;5032420;28;20032;-69